Ljuta — J8B4127 — position and weather

sailwx.info

Track history (hours):
 
Tides and Currents Weather Stations Pressure Air Temp Water Temp Dewpoint Dewpoint Depression Visibility Wind Speed Wind Dir Waves Ship Positions

Ljuta

Last reported at 2016-Sep-24 22:19 UTC. Time now 2016-Sep-30 11:46 UTC.
Position N 45°18' E 014°27'.

Length 177 m; draft 5.9 m.

Type: Cargo ship. MMSI: 377715000.

Date/timePositionNaut miles runAvg speedWind from/ knotsBaromVisibWave heightAir tempDewpointWater temp
2016-Sep-24 22:19N 45°18' E 014°27'5 4.5
2016-Sep-24 21:19N 45°15' E 014°23'2011.7
2016-Sep-24 19:34N 44°56' E 014°12'1313.3
2016-Sep-24 18:33N 44°43' E 014°08'1313.3
2016-Sep-24 17:33N 44°30' E 014°11'40011.4
2016-Sep-23 06:33N 38°08' E 016°47'4213.8
2016-Sep-23 03:33N 37°36' E 016°14'9312.7
2016-Sep-22 20:12N 36°38' E 014°43'  
2016-Sep-18 14:34N 35°43' W 000°38'  
Track history (hours):
 
Tides and Currents Weather Stations Pressure Air Temp Water Temp Dewpoint Dewpoint Depression Visibility Wind Speed Wind Dir Waves Ship Positions

Ljuta

Last reported at 2016-Sep-24 22:19 UTC. Time now 2016-Sep-30 11:46 UTC.
Position N 45°18' E 014°27'.

Length 177 m; draft 5.9 m.

Type: Cargo ship. MMSI: 377715000.

Date/timePositionNaut miles runAvg speedWind from/ knotsBaromVisibWave heightAir tempDewpointWater temp
2016-Sep-24 22:19N 45°18' E 014°27'5 4.5
2016-Sep-24 21:19N 45°15' E 014°23'2011.7
2016-Sep-24 19:34N 44°56' E 014°12'1313.3
2016-Sep-24 18:33N 44°43' E 014°08'1313.3
2016-Sep-24 17:33N 44°30' E 014°11'40011.4
2016-Sep-23 06:33N 38°08' E 016°47'4213.8
2016-Sep-23 03:33N 37°36' E 016°14'9312.7
2016-Sep-22 20:12N 36°38' E 014°43'  
2016-Sep-18 14:34N 35°43' W 000°38'  

Dump ship's entire track history